Time;durP1;ratioP1;P1;durP2;ratioP2;P2;SDS_P1;SDS_P2;PMS_P1;PMS_P2;Temp;Humidity;BMP_temperature;BMP_pressure;BME280_temperature;BME280_humidity;BME280_pressure;Samples;Min_cycle;Max_cycle;Signal;HPM_P1;HPM_P2
2023/09/08 00:01:14;;;;;;;;;18.00;15.00;;;;;21.01;36.40;99801.56;5087501;28;8877;-70
2023/09/08 00:03:43;;;;;;;;;16.20;15.00;;;;;20.98;36.72;99807.06;5086881;28;8898;-71
2023/09/08 00:06:11;;;;;;;;;15.40;14.20;;;;;20.96;36.81;99808.97;5087799;28;8866;-70
2023/09/08 00:08:43;;;;;;;;;17.20;16.20;;;;;20.93;37.21;99811.84;5087835;28;8867;-74
2023/09/08 00:11:11;;;;;;;;;15.60;14.00;;;;;20.90;37.44;99803.97;5052339;28;8844;-71
2023/09/08 00:13:40;;;;;;;;;14.80;14.80;;;;;20.93;37.42;99801.16;5087434;28;8859;-71
2023/09/08 00:16:09;;;;;;;;;18.60;17.60;;;;;20.91;37.58;99802.16;5071717;28;8824;-70
2023/09/08 00:18:39;;;;;;;;;17.40;17.40;;;;;20.89;37.56;99802.25;5091431;28;8882;-73
2023/09/08 00:21:07;;;;;;;;;14.60;13.80;;;;;20.86;38.22;99799.78;5090616;28;8855;-72
2023/09/08 00:23:36;;;;;;;;;18.40;18.20;;;;;20.78;38.74;99808.22;5091461;28;9076;-72
2023/09/08 00:26:07;;;;;;;;;18.80;18.20;;;;;20.52;39.41;99815.13;5090986;28;9690;-72
2023/09/08 00:28:37;;;;;;;;;18.80;18.80;;;;;20.43;39.38;99805.84;5107070;28;8852;-72
2023/09/08 00:31:06;;;;;;;;;20.80;16.40;;;;;20.44;39.37;99804.00;5055480;28;8956;-72
2023/09/08 00:33:35;;;;;;;;;18.40;16.20;;;;;20.40;39.67;99800.66;5091289;28;8828;-72
2023/09/08 00:36:04;;;;;;;;;12.20;12.20;;;;;20.37;39.88;99800.84;5090631;28;8824;-73
2023/09/08 00:38:33;;;;;;;;;18.40;17.60;;;;;20.32;39.67;99796.72;5055899;28;8955;-72
2023/09/08 00:41:02;;;;;;;;;13.60;13.60;;;;;20.30;40.05;99804.81;5089612;28;8957;-72
2023/09/08 00:43:32;;;;;;;;;16.80;16.00;;;;;20.26;39.95;99803.28;5106360;28;9371;-72
2023/09/08 00:46:02;;;;;;;;;16.40;15.20;;;;;20.26;40.17;99801.47;5055076;28;8940;-71
2023/09/08 00:48:32;;;;;;;;;19.80;16.20;;;;;20.26;40.33;99801.47;5089645;28;8843;-73
2023/09/08 00:51:01;;;;;;;;;14.80;14.80;;;;;20.22;40.55;99799.03;5089324;28;8856;-72
2023/09/08 00:53:30;;;;;;;;;16.00;15.40;;;;;20.20;40.40;99798.22;5088899;28;8839;-72
2023/09/08 00:56:00;;;;;;;;;17.00;16.00;;;;;20.22;40.46;99793.69;5088491;28;8910;-72
2023/09/08 00:58:31;;;;;;;;;15.20;15.00;;;;;20.06;41.32;99791.88;5090714;28;8870;-74
2023/09/08 01:01:01;;;;;;;;;17.40;16.00;;;;;20.05;41.28;99800.00;5106344;28;8863;-72
2023/09/08 01:03:30;;;;;;;;;13.20;13.20;;;;;20.04;41.42;99796.44;5106142;28;8986;-71
2023/09/08 01:05:59;;;;;;;;;14.80;14.60;;;;;19.97;41.69;99795.09;5071718;28;9964;-71
2023/09/08 01:08:29;;;;;;;;;17.40;17.40;;;;;19.87;41.78;99793.88;5090673;28;8867;-72
2023/09/08 01:10:58;;;;;;;;;16.40;15.80;;;;;19.90;41.86;99791.03;5105206;27;9021;-71
2023/09/08 01:13:27;;;;;;;;;17.00;17.00;;;;;19.81;42.21;99794.22;5090634;28;8839;-72
2023/09/08 01:15:57;;;;;;;;;14.80;13.20;;;;;19.79;42.26;99796.13;5090468;28;8863;-73
2023/09/08 01:18:26;;;;;;;;;16.40;15.20;;;;;19.85;42.30;99793.09;5106190;28;8836;-72
2023/09/08 01:21:14;;;;;;;;;15.40;14.40;;;;;19.89;41.88;99792.81;5090641;28;8860;-72
2023/09/08 01:24:00;;;;;;;;;18.20;17.40;;;;;19.85;42.32;99791.28;5090909;28;8867;-72
2023/09/08 01:26:35;;;;;;;;;17.40;16.40;;;;;19.81;42.36;99792.41;5099617;28;8983;-72
2023/09/08 01:29:06;;;;;;;;;18.40;18.00;;;;;19.73;41.96;99801.78;5126246;27;8845;-73
2023/09/08 01:31:35;;;;;;;;;19.20;16.20;;;;;19.66;42.19;99795.91;5109279;28;8865;-71
2023/09/08 01:34:06;;;;;;;;;16.00;15.40;;;;;19.62;42.44;99797.03;5109475;28;8844;-72
2023/09/08 01:36:36;;;;;;;;;16.40;15.00;;;;;19.58;42.14;99796.34;5095964;28;8946;-73
2023/09/08 01:39:05;;;;;;;;;15.40;15.40;;;;;19.52;42.23;99791.34;5088582;28;8855;-74
2023/09/08 01:41:35;;;;;;;;;15.40;14.00;;;;;19.58;41.40;99800.81;5108390;28;8990;-73
2023/09/08 01:44:07;;;;;;;;;13.40;13.00;;;;;19.47;41.31;99796.88;5110527;28;8845;-72
2023/09/08 01:46:36;;;;;;;;;15.20;13.00;;;;;19.54;40.55;99799.25;5108936;28;8952;-73
2023/09/08 01:49:05;;;;;;;;;8.60;8.60;;;;;19.52;40.43;99802.88;5108953;28;9613;-73
2023/09/08 01:51:34;;;;;;;;;14.60;14.60;;;;;19.48;40.41;99801.28;5108727;28;8883;-74
2023/09/08 01:54:04;;;;;;;;;17.80;16.60;;;;;19.48;40.16;99801.28;5109252;28;8928;-76
2023/09/08 01:56:32;;;;;;;;;15.20;14.80;;;;;19.44;40.21;99791.75;5108865;28;8988;-72
2023/09/08 01:59:02;;;;;;;;;18.00;15.00;;;;;19.46;40.24;99794.28;5108743;27;8858;-70
2023/09/08 02:01:31;;;;;;;;;13.40;13.40;;;;;19.44;40.41;99790.84;5125534;27;8841;-72
2023/09/08 02:04:00;;;;;;;;;17.40;15.00;;;;;19.34;40.57;99793.16;5109768;28;8829;-72
2023/09/08 02:06:29;;;;;;;;;14.60;14.60;;;;;19.34;40.26;99790.50;5125294;27;8898;-72
2023/09/08 02:08:58;;;;;;;;;12.20;11.60;;;;;19.24;40.12;99791.94;5122563;27;8868;-73
2023/09/08 02:11:26;;;;;;;;;17.00;15.60;;;;;19.23;40.38;99800.88;5104973;28;8843;-72
2023/09/08 02:13:56;;;;;;;;;18.20;13.80;;;;;19.28;40.23;99801.50;5105228;27;8852;-72
2023/09/08 02:16:28;;;;;;;;;16.20;16.00;;;;;19.12;40.22;99801.41;5125270;27;8860;-71
2023/09/08 02:18:58;;;;;;;;;15.80;14.00;;;;;19.04;40.27;99798.31;5108443;28;8852;-72
2023/09/08 02:21:27;;;;;;;;;17.40;14.00;;;;;19.13;40.13;99797.81;5124485;27;8849;-72
2023/09/08 02:23:56;;;;;;;;;14.00;13.40;;;;;19.06;40.42;99799.94;5089299;28;8840;-72
2023/09/08 02:26:27;;;;;;;;;15.80;13.40;;;;;19.09;40.17;99807.78;5071174;28;8881;-72
2023/09/08 02:28:56;;;;;;;;;14.80;13.40;;;;;19.04;40.24;99806.31;5103985;27;8828;-72
2023/09/08 02:31:28;;;;;;;;;13.80;11.80;;;;;19.02;40.12;99802.84;5109440;28;8921;-73
2023/09/08 02:33:58;;;;;;;;;15.60;14.40;;;;;18.99;40.48;99803.00;5104508;28;8870;-71
2023/09/08 02:36:27;;;;;;;;;12.00;10.60;;;;;18.98;40.10;99798.63;5089152;28;8874;-74
2023/09/08 02:38:58;;;;;;;;;16.00;15.00;;;;;18.98;40.30;99801.31;5103842;28;8931;-74
2023/09/08 02:41:26;;;;;;;;;12.20;12.20;;;;;18.97;40.30;99796.91;5104607;28;8958;-71
2023/09/08 02:43:55;;;;;;;;;14.80;14.00;;;;;18.90;40.30;99794.56;5088807;28;8840;-74
2023/09/08 02:46:25;;;;;;;;;18.00;16.00;;;;;18.92;39.97;99789.16;5106459;28;8877;-72
2023/09/08 02:48:57;;;;;;;;;12.20;12.20;;;;;18.93;39.85;99799.75;5124648;27;8861;-73
2023/09/08 02:51:25;;;;;;;;;9.00;9.00;;;;;18.82;39.76;99799.44;5109179;28;8853;-73
2023/09/08 02:53:54;;;;;;;;;15.40;15.40;;;;;18.80;39.76;99803.09;5107578;28;8841;-72
2023/09/08 02:56:23;;;;;;;;;16.20;16.20;;;;;18.79;39.71;99794.25;5108111;28;8848;-73
2023/09/08 02:58:54;;;;;;;;;14.20;14.20;;;;;18.82;39.64;99799.44;5109351;28;8836;-72
2023/09/08 03:01:22;;;;;;;;;13.00;13.00;;;;;18.86;39.71;99797.47;5085044;28;8964;-71
2023/09/08 03:03:52;;;;;;;;;18.20;14.80;;;;;18.84;39.75;99796.69;5104777;28;8840;-73
2023/09/08 03:06:23;;;;;;;;;15.60;14.20;;;;;18.83;39.80;99798.47;5087595;28;8867;-73
2023/09/08 03:08:52;;;;;;;;;18.40;16.40;;;;;18.81;39.75;99799.50;5087487;28;8840;-74
2023/09/08 03:11:20;;;;;;;;;18.40;17.80;;;;;18.76;39.72;99791.69;5104462;28;8863;-73
2023/09/08 03:13:49;;;;;;;;;15.40;14.60;;;;;18.71;39.69;99794.63;5103966;28;8839;-73
2023/09/08 03:16:18;;;;;;;;;14.00;14.00;;;;;18.70;39.50;99792.03;5087657;28;8863;-71
2023/09/08 03:18:47;;;;;;;;;13.80;13.80;;;;;18.69;39.72;99796.50;5103798;28;8828;-73
2023/09/08 03:21:15;;;;;;;;;12.80;12.60;;;;;18.64;39.60;99790.53;5086898;28;9803;-71
2023/09/08 03:23:47;;;;;;;;;15.80;13.60;;;;;18.65;39.61;99792.28;5086945;28;8889;-72
2023/09/08 03:26:17;;;;;;;;;13.00;13.00;;;;;18.61;39.75;99793.38;5087033;28;8870;-74
2023/09/08 03:28:46;;;;;;;;;16.20;16.20;;;;;18.56;39.67;99800.72;5104079;28;8940;-73
2023/09/08 03:31:14;;;;;;;;;16.20;16.00;;;;;18.53;39.94;99795.53;5087485;27;8886;-72
2023/09/08 03:33:43;;;;;;;;;19.00;17.40;;;;;18.52;39.86;99794.69;5087248;28;8869;-72
2023/09/08 03:36:13;;;;;;;;;15.20;14.20;;;;;18.55;39.78;99797.19;5103657;28;9739;-73
2023/09/08 03:38:42;;;;;;;;;15.00;14.60;;;;;18.53;40.08;99806.19;5103593;28;8870;-73
2023/09/08 03:41:12;;;;;;;;;10.20;10.20;;;;;18.48;39.96;99802.91;5088346;28;9624;-73
2023/09/08 03:43:41;;;;;;;;;20.40;18.80;;;;;18.41;40.19;99799.69;5086511;28;8874;-72
2023/09/08 03:46:10;;;;;;;;;21.40;20.80;;;;;18.41;40.00;99802.34;5086573;28;8851;-71
2023/09/08 03:48:39;;;;;;;;;18.20;14.60;;;;;18.41;40.10;99796.16;5088584;28;8866;-73
2023/09/08 03:51:08;;;;;;;;;18.40;17.00;;;;;18.29;40.24;99800.25;5090299;28;8848;-75
2023/09/08 03:53:37;;;;;;;;;15.60;15.60;;;;;18.24;40.18;99800.50;5091996;28;8870;-74
2023/09/08 03:56:08;;;;;;;;;17.60;16.60;;;;;18.15;40.38;99796.47;5090844;28;8879;-73
2023/09/08 03:58:38;;;;;;;;;19.40;16.80;;;;;18.19;40.48;99791.88;5090496;28;8840;-74
2023/09/08 04:01:07;;;;;;;;;16.60;16.20;;;;;18.18;40.29;99791.97;5092057;28;8851;-72
2023/09/08 04:03:36;;;;;;;;;17.00;16.80;;;;;18.20;40.20;99796.28;5091992;28;8839;-72
2023/09/08 04:06:05;;;;;;;;;19.60;18.20;;;;;18.16;40.17;99795.56;5107307;28;8867;-73
2023/09/08 04:08:35;;;;;;;;;18.60;18.00;;;;;18.13;40.20;99797.50;5107219;28;8943;-73
2023/09/08 04:11:03;;;;;;;;;18.80;17.00;;;;;18.15;40.06;99796.47;5106288;27;8940;-73
2023/09/08 04:13:32;;;;;;;;;16.20;15.40;;;;;18.10;40.07;99802.97;5090121;28;8840;-73
2023/09/08 04:16:03;;;;;;;;;17.00;17.00;;;;;18.07;40.09;99806.63;5090291;28;8975;-73
2023/09/08 04:18:32;;;;;;;;;14.40;13.80;;;;;18.06;40.07;99802.28;5098798;28;8845;-75
2023/09/08 04:21:00;;;;;;;;;16.20;15.20;;;;;18.04;40.11;99804.13;5110586;28;8853;-74
2023/09/08 04:23:30;;;;;;;;;14.40;14.40;;;;;18.08;40.01;99802.16;5127587;27;8833;-74
2023/09/08 04:26:00;;;;;;;;;17.00;16.40;;;;;18.08;40.07;99811.03;5112005;28;8836;-74
2023/09/08 04:28:29;;;;;;;;;19.80;19.00;;;;;18.00;40.36;99805.16;5059565;28;8829;-74
2023/09/08 04:30:59;;;;;;;;;12.60;12.60;;;;;18.06;40.13;99815.56;5110556;28;8964;-74
2023/09/08 04:33:30;;;;;;;;;16.60;16.60;;;;;18.10;40.15;99809.16;5111892;28;8829;-74
2023/09/08 04:35:59;;;;;;;;;13.60;13.60;;;;;18.03;40.33;99810.38;5111705;28;8837;-73
2023/09/08 04:38:28;;;;;;;;;15.80;15.80;;;;;18.06;40.16;99810.25;5090000;28;8847;-74
2023/09/08 04:40:57;;;;;;;;;16.40;13.80;;;;;18.12;40.27;99809.09;5089634;28;8828;-74
2023/09/08 04:43:26;;;;;;;;;12.40;11.20;;;;;18.15;40.08;99808.94;5074288;28;8832;-73
2023/09/08 04:45:55;;;;;;;;;17.00;15.20;;;;;18.12;40.03;99801.97;5127211;27;8861;-73
2023/09/08 04:48:24;;;;;;;;;14.20;13.80;;;;;18.25;39.87;99799.59;5109828;28;8853;-73
2023/09/08 04:50:54;;;;;;;;;15.40;15.00;;;;;18.30;39.76;99808.19;5090694;28;8860;-74
2023/09/08 04:53:23;;;;;;;;;14.60;14.60;;;;;18.27;39.83;99811.00;5056165;28;8886;-73
2023/09/08 04:55:53;;;;;;;;;17.80;17.00;;;;;18.27;39.89;99805.69;5106805;28;8844;-73
2023/09/08 04:58:22;;;;;;;;;15.80;14.60;;;;;18.33;39.75;99807.19;5089361;28;8832;-73
2023/09/08 05:00:51;;;;;;;;;17.20;16.20;;;;;18.43;39.61;99810.25;5093326;28;8977;-73
2023/09/08 05:03:20;;;;;;;;;15.20;14.80;;;;;18.41;39.59;99812.13;5109044;28;8941;-72
2023/09/08 05:05:49;;;;;;;;;12.60;12.60;;;;;18.41;39.50;99807.66;5085214;28;8994;-75
2023/09/08 05:08:19;;;;;;;;;14.80;14.80;;;;;18.47;39.67;99811.81;5122647;27;8951;-73
2023/09/08 05:10:48;;;;;;;;;17.40;17.00;;;;;18.40;39.52;99813.06;5090449;28;8848;-74
2023/09/08 05:13:17;;;;;;;;;17.60;15.00;;;;;18.47;39.50;99812.66;5105730;28;9617;-74
2023/09/08 05:16:10;;;;;;;;;16.40;15.20;;;;;18.59;39.29;99815.66;5052117;28;8865;-75
2023/09/08 05:18:43;;;;;;;;;14.40;13.00;;;;;18.69;38.97;99807.16;5036722;28;8951;-74
2023/09/08 05:21:14;;;;;;;;;16.20;16.20;;;;;18.69;38.89;99809.81;5050482;28;8850;-73
2023/09/08 05:23:44;;;;;;;;;14.80;13.80;;;;;18.67;39.16;99809.03;5034393;28;8838;-72
2023/09/08 05:26:13;;;;;;;;;12.20;12.20;;;;;18.68;39.12;99823.19;5050642;28;8862;-72
2023/09/08 05:28:42;;;;;;;;;15.80;15.00;;;;;18.68;39.01;99809.88;5050398;28;9603;-73
2023/09/08 05:31:12;;;;;;;;;15.20;14.80;;;;;18.82;38.87;99815.41;5066951;28;8903;-72
2023/09/08 05:33:42;;;;;;;;;12.40;12.40;;;;;18.84;38.92;99818.84;5032541;28;8877;-73
2023/09/08 05:36:11;;;;;;;;;18.00;16.00;;;;;18.90;38.77;99810.53;5049980;28;8981;-72
2023/09/08 05:38:45;;;;;;;;;14.40;13.60;;;;;19.00;38.56;99820.72;5050380;28;8922;-73
2023/09/08 05:41:14;;;;;;;;;12.60;12.40;;;;;19.03;38.37;99815.25;5066834;28;8858;-73
2023/09/08 05:43:43;;;;;;;;;13.80;13.20;;;;;19.05;38.59;99818.69;5066745;28;8850;-72
2023/09/08 05:46:12;;;;;;;;;13.80;12.80;;;;;19.10;38.39;99808.63;5050155;28;8854;-72
2023/09/08 05:48:43;;;;;;;;;16.00;15.40;;;;;19.06;38.35;99815.06;5065438;28;8870;-69
2023/09/08 05:51:12;;;;;;;;;8.00;7.60;;;;;19.17;38.29;99814.53;5066629;28;8850;-70
2023/09/08 05:53:40;;;;;;;;;13.00;12.00;;;;;19.21;38.38;99819.59;5077953;28;8828;-69
2023/09/08 05:56:11;;;;;;;;;14.80;14.00;;;;;19.32;38.22;99811.03;5107653;28;9598;-68
2023/09/08 05:58:43;;;;;;;;;11.40;11.40;;;;;19.27;38.26;99813.97;5108268;28;10068;-68
2023/09/08 06:01:11;;;;;;;;;16.20;16.20;;;;;19.37;38.09;99809.00;5127392;27;9015;-70
2023/09/08 06:03:40;;;;;;;;;10.20;10.00;;;;;19.43;38.10;99815.81;5102878;28;9647;-69
2023/09/08 06:06:09;;;;;;;;;14.00;13.00;;;;;19.53;37.84;99822.38;5088808;28;8859;-69
2023/09/08 06:08:38;;;;;;;;;13.60;13.00;;;;;19.64;37.89;99827.16;5098400;27;8862;-69
2023/09/08 06:11:07;;;;;;;;;15.40;14.40;;;;;19.61;38.03;99820.19;5062238;28;8990;-69
2023/09/08 06:13:38;;;;;;;;;14.40;13.40;;;;;19.71;37.75;99823.22;5088695;28;8835;-70
2023/09/08 06:16:07;;;;;;;;;15.20;14.40;;;;;19.78;37.86;99826.38;5106435;28;8839;-69
2023/09/08 06:18:39;;;;;;;;;11.60;9.80;;;;;19.90;37.60;99823.91;5100823;28;8851;-71
2023/09/08 06:21:11;;;;;;;;;12.60;11.00;;;;;19.93;37.27;99817.53;5089117;28;8853;-70
2023/09/08 06:23:41;;;;;;;;;12.40;11.80;;;;;19.95;37.52;99830.78;5086008;28;8842;-69
2023/09/08 06:26:10;;;;;;;;;16.00;14.60;;;;;20.03;37.49;99829.44;5088940;28;9020;-71
2023/09/08 06:28:43;;;;;;;;;12.60;12.40;;;;;20.08;37.21;99822.03;5055976;28;8917;-70
2023/09/08 06:31:12;;;;;;;;;16.40;15.60;;;;;20.10;37.05;99833.47;5079161;28;8872;-71
2023/09/08 06:33:43;;;;;;;;;14.80;12.60;;;;;20.28;37.36;99825.41;5063572;28;8850;-70
2023/09/08 06:36:11;;;;;;;;;14.20;13.40;;;;;20.40;37.09;99827.34;5068351;28;8874;-72
2023/09/08 06:38:41;;;;;;;;;13.60;12.40;;;;;20.22;37.15;99831.06;5065823;28;8905;-71
2023/09/08 06:41:12;;;;;;;;;14.60;14.00;;;;;20.35;36.86;99833.91;5081641;28;8888;-68
2023/09/08 06:43:43;;;;;;;;;10.80;10.80;;;;;20.51;36.87;99834.75;5047121;28;9613;-68
2023/09/08 06:46:17;;;;;;;;;12.80;12.00;;;;;20.57;36.52;99831.72;5055584;28;8846;-70
2023/09/08 06:48:47;;;;;;;;;12.80;12.80;;;;;20.67;37.00;99842.72;5057920;28;8971;-69
2023/09/08 06:51:16;;;;;;;;;14.20;14.20;;;;;20.69;36.67;99840.84;5062755;28;8869;-69
2023/09/08 06:53:45;;;;;;;;;16.20;15.00;;;;;20.88;36.97;99844.16;5062767;28;8853;-70
2023/09/08 06:56:14;;;;;;;;;12.00;12.00;;;;;21.12;36.52;99843.66;5048095;28;8849;-67
2023/09/08 06:58:44;;;;;;;;;15.40;15.00;;;;;21.10;36.42;99850.06;5080095;28;8877;-69
2023/09/08 07:01:13;;;;;;;;;13.00;12.80;;;;;21.04;36.71;99838.78;5063233;28;8947;-69
2023/09/08 07:03:42;;;;;;;;;14.00;14.00;;;;;21.08;36.52;99849.28;5100256;28;8850;-70
2023/09/08 07:06:12;;;;;;;;;14.00;12.00;;;;;21.13;36.74;99842.72;5065370;28;8842;-69
2023/09/08 07:08:40;;;;;;;;;15.60;13.00;;;;;21.20;37.10;99849.41;5068342;28;8835;-68
2023/09/08 07:11:09;;;;;;;;;16.00;14.20;;;;;21.41;36.75;99844.56;5093836;28;8859;-70
2023/09/08 07:13:38;;;;;;;;;13.00;13.00;;;;;21.40;36.80;99848.19;5081399;28;8841;-69
2023/09/08 07:16:08;;;;;;;;;16.80;15.00;;;;;21.58;36.29;99856.06;5076060;28;10076;-70
2023/09/08 07:18:38;;;;;;;;;13.20;13.20;;;;;21.71;36.14;99848.13;5064532;28;8889;-71
2023/09/08 07:21:08;;;;;;;;;12.20;12.00;;;;;21.94;35.66;99849.38;5083962;28;8967;-69
2023/09/08 07:23:38;;;;;;;;;13.40;13.40;;;;;21.96;35.66;99856.34;5097624;28;8857;-68
2023/09/08 07:26:08;;;;;;;;;13.60;13.40;;;;;22.00;35.10;99854.31;5067629;28;8849;-69
2023/09/08 07:28:38;;;;;;;;;9.60;9.60;;;;;22.11;35.11;99857.19;5100706;28;8884;-69
2023/09/08 07:31:11;;;;;;;;;14.00;14.00;;;;;22.18;35.24;99861.19;5084368;28;8953;-68
2023/09/08 07:33:44;;;;;;;;;13.00;12.80;;;;;22.10;35.21;99857.28;5084377;28;8934;-69
2023/09/08 07:36:13;;;;;;;;;13.00;12.80;;;;;22.27;35.04;99854.38;5016520;28;8875;-69
2023/09/08 07:38:44;;;;;;;;;10.40;10.40;;;;;22.40;35.15;99865.16;5020138;28;8922;-68
2023/09/08 07:41:13;;;;;;;;;14.60;14.20;;;;;22.58;34.71;99866.63;5067896;28;8961;-69
2023/09/08 07:43:44;;;;;;;;;14.00;14.00;;;;;22.76;34.77;99861.84;5025986;28;9670;-69
2023/09/08 07:46:16;;;;;;;;;15.40;15.40;;;;;22.99;34.42;99867.53;5033325;28;8835;-69
2023/09/08 07:48:45;;;;;;;;;13.60;13.60;;;;;22.99;34.11;99878.25;5072338;28;8865;-68
2023/09/08 07:51:14;;;;;;;;;11.20;11.20;;;;;23.08;33.85;99860.69;5081749;28;8992;-70
2023/09/08 07:53:43;;;;;;;;;15.20;14.40;;;;;23.21;34.17;99863.38;5064267;28;8866;-68
2023/09/08 07:56:11;;;;;;;;;14.80;11.00;;;;;23.33;33.81;99857.16;5064805;28;8866;-68
2023/09/08 07:58:41;;;;;;;;;15.20;15.20;;;;;23.48;32.87;99868.66;5064712;28;8846;-70
2023/09/08 08:01:09;;;;;;;;;11.80;11.80;;;;;23.54;33.01;99863.72;5015470;28;8874;-69
2023/09/08 08:03:40;;;;;;;;;16.80;14.80;;;;;23.69;32.99;99867.16;5064672;28;9605;-68
2023/09/08 08:06:09;;;;;;;;;15.20;14.20;;;;;23.81;32.72;99859.19;5047782;28;8876;-68
2023/09/08 08:08:38;;;;;;;;;15.80;14.40;;;;;23.86;33.19;99863.28;5047146;28;8889;-70
2023/09/08 08:11:12;;;;;;;;;13.40;13.40;;;;;23.88;32.04;99860.47;5044736;28;8877;-69
2023/09/08 08:13:41;;;;;;;;;13.20;12.60;;;;;23.91;32.11;99860.28;5044873;28;8869;-70
2023/09/08 08:16:10;;;;;;;;;17.00;14.00;;;;;23.85;32.49;99866.94;5044815;28;8980;-69
2023/09/08 08:18:41;;;;;;;;;13.60;13.60;;;;;23.97;32.31;99862.50;5044765;28;8905;-69
2023/09/08 08:21:09;;;;;;;;;14.40;14.40;;;;;23.98;32.89;99864.25;5056177;28;8860;-68
2023/09/08 08:23:39;;;;;;;;;13.20;13.20;;;;;24.05;32.33;99867.31;5064649;28;8925;-71
2023/09/08 08:26:08;;;;;;;;;18.00;15.40;;;;;24.12;32.00;99857.84;5068171;28;8854;-68
2023/09/08 08:28:37;;;;;;;;;10.60;10.60;;;;;24.21;32.39;99867.13;5084856;28;9719;-68
2023/09/08 08:31:05;;;;;;;;;15.00;15.00;;;;;24.27;32.21;99866.66;5085006;28;8854;-68
2023/09/08 08:33:34;;;;;;;;;15.20;13.60;;;;;24.30;32.11;99869.97;5084495;28;8937;-68
2023/09/08 08:36:05;;;;;;;;;13.60;13.60;;;;;24.33;32.27;99868.88;5020356;28;9665;-70
2023/09/08 08:38:34;;;;;;;;;12.80;12.80;;;;;24.40;31.58;99864.78;5055787;28;8864;-68
2023/09/08 08:41:04;;;;;;;;;14.60;14.20;;;;;24.47;31.57;99874.09;5085629;28;8943;-70
2023/09/08 08:43:34;;;;;;;;;12.40;12.40;;;;;24.53;31.31;99862.91;5027083;28;8866;-69
2023/09/08 08:46:03;;;;;;;;;12.60;11.40;;;;;24.62;31.64;99869.44;5069850;28;8866;-69
2023/09/08 08:48:34;;;;;;;;;15.40;13.80;;;;;24.63;31.25;99864.91;5063745;28;9638;-68
2023/09/08 08:51:05;;;;;;;;;10.40;9.80;;;;;24.61;31.34;99869.53;5050347;28;8911;-67
2023/09/08 08:53:36;;;;;;;;;14.40;12.40;;;;;24.71;30.83;99859.78;5050591;28;8860;-69
2023/09/08 08:56:08;;;;;;;;;12.40;12.40;;;;;24.63;30.91;99859.53;5050475;28;8845;-69
2023/09/08 08:58:38;;;;;;;;;15.00;14.00;;;;;24.59;31.04;99853.50;5036299;28;8862;-68
2023/09/08 09:01:08;;;;;;;;;11.20;11.20;;;;;24.61;31.28;99865.00;5070381;28;8939;-69
2023/09/08 09:03:38;;;;;;;;;12.00;12.00;;;;;24.61;31.55;99861.47;5070563;28;8850;-69
2023/09/08 09:06:08;;;;;;;;;10.40;10.40;;;;;24.60;31.08;99865.97;5070210;28;9650;-70
2023/09/08 09:08:39;;;;;;;;;10.80;10.00;;;;;24.72;31.03;99873.13;5070194;28;9656;-70
2023/09/08 09:11:08;;;;;;;;;10.60;10.60;;;;;24.78;30.47;99863.78;5069970;28;8966;-69
2023/09/08 09:13:37;;;;;;;;;10.80;9.80;;;;;24.84;30.89;99871.38;5035442;28;8958;-71
2023/09/08 09:16:10;;;;;;;;;15.00;13.40;;;;;24.86;30.63;99879.31;5070411;28;9714;-69
2023/09/08 09:18:55;;;;;;;;;12.00;12.00;;;;;24.82;31.04;99864.41;5070004;28;8858;-69
2023/09/08 09:21:25;;;;;;;;;13.20;12.00;;;;;24.86;30.54;99877.47;5083764;28;8847;-68
2023/09/08 09:23:55;;;;;;;;;13.00;11.40;;;;;24.95;30.81;99870.56;5090306;28;9616;-68
2023/09/08 09:26:25;;;;;;;;;12.60;12.00;;;;;24.83;30.58;99879.53;5090438;28;8878;-67
2023/09/08 09:28:55;;;;;;;;;10.80;10.80;;;;;24.98;30.14;99874.84;5090174;28;9701;-69
2023/09/08 09:31:26;;;;;;;;;13.40;11.60;;;;;25.06;30.19;99867.91;5090054;28;8871;-68
2023/09/08 09:34:05;;;;;;;;;12.00;11.40;;;;;25.24;30.09;99873.69;5090395;28;8844;-71
2023/09/08 09:36:40;;;;;;;;;9.40;8.80;;;;;25.21;29.99;99867.69;5089749;28;8867;-67
2023/09/08 09:39:09;;;;;;;;;11.40;9.60;;;;;25.19;30.35;99859.75;5089866;28;8980;-69
2023/09/08 09:41:38;;;;;;;;;11.40;10.40;;;;;25.32;29.77;99873.13;5089460;28;9002;-68
2023/09/08 09:44:07;;;;;;;;;12.40;11.40;;;;;25.33;29.27;99864.09;5089832;28;8855;-69
2023/09/08 09:46:36;;;;;;;;;12.40;12.40;;;;;25.34;29.35;99864.94;5089072;28;8867;-70
2023/09/08 09:49:05;;;;;;;;;12.40;10.80;;;;;25.37;29.86;99870.09;5090050;28;9618;-69
2023/09/08 09:51:41;;;;;;;;;10.20;10.20;;;;;25.45;30.07;99863.09;5089458;28;8878;-70
2023/09/08 09:54:10;;;;;;;;;11.60;10.20;;;;;25.42;29.91;99865.22;5089668;28;8851;-67
2023/09/08 09:56:40;;;;;;;;;10.80;10.60;;;;;25.56;29.76;99864.97;5089487;28;8951;-69
2023/09/08 09:59:10;;;;;;;;;8.20;8.20;;;;;25.65;28.98;99866.94;5088225;28;8840;-69
2023/09/08 10:01:39;;;;;;;;;11.80;11.80;;;;;25.28;29.63;99866.22;5089748;28;8858;-70
2023/09/08 10:04:08;;;;;;;;;10.20;10.20;;;;;25.53;29.92;99865.22;5089449;28;8955;-69
2023/09/08 10:06:40;;;;;;;;;11.80;11.00;;;;;25.33;29.84;99857.84;5053970;28;8832;-69
2023/09/08 10:09:13;;;;;;;;;13.00;12.20;;;;;25.62;29.53;99869.84;5089721;28;8984;-69
2023/09/08 10:11:45;;;;;;;;;13.80;11.40;;;;;25.75;28.66;99868.88;5089704;28;8848;-68
2023/09/08 10:14:16;;;;;;;;;11.80;11.80;;;;;25.88;29.06;99861.53;5089794;28;8858;-72
2023/09/08 10:16:49;;;;;;;;;13.00;12.00;;;;;26.00;28.80;99857.91;5089063;28;8967;-68
2023/09/08 10:19:18;;;;;;;;;12.00;11.60;;;;;26.12;29.11;99858.75;5089030;28;8969;-69
2023/09/08 10:21:52;;;;;;;;;12.60;12.60;;;;;26.10;29.33;99852.63;5089095;28;8839;-71
2023/09/08 10:24:25;;;;;;;;;12.00;11.60;;;;;26.11;29.00;99850.78;5070185;28;8947;-68
2023/09/08 10:27:00;;;;;;;;;13.00;12.00;;;;;26.12;29.21;99844.41;5089077;28;8851;-70
2023/09/08 10:29:31;;;;;;;;;10.40;10.40;;;;;26.14;29.57;99845.16;5087801;28;8867;-72
2023/09/08 10:32:01;;;;;;;;;10.80;10.80;;;;;26.30;29.37;99842.88;5088825;28;8844;-71
2023/09/08 10:34:31;;;;;;;;;11.00;10.40;;;;;26.21;28.99;99827.47;5087193;28;8855;-69
2023/09/08 10:37:02;;;;;;;;;12.80;12.40;;;;;26.27;28.43;99832.38;5088913;28;8835;-68
2023/09/08 10:39:35;;;;;;;;;13.20;13.20;;;;;26.15;28.50;99827.97;5089087;28;8864;-68
2023/09/08 10:42:29;;;;;;;;;15.00;13.80;;;;;26.53;28.68;99827.56;5099569;28;9672;-70
2023/09/08 10:45:03;;;;;;;;;10.80;10.80;;;;;26.29;28.42;99825.88;5108923;28;8848;-70
2023/09/08 10:47:36;;;;;;;;;10.20;10.20;;;;;26.11;28.66;99826.53;5109308;28;8829;-70
2023/09/08 10:50:08;;;;;;;;;11.60;11.60;;;;;25.89;28.11;99829.09;5105411;28;8876;-70
2023/09/08 10:52:38;;;;;;;;;10.80;10.80;;;;;25.94;28.58;99826.06;5106711;28;8980;-71
2023/09/08 10:55:07;;;;;;;;;12.80;12.60;;;;;26.07;28.34;99826.75;5096678;28;8831;-69
2023/09/08 10:57:36;;;;;;;;;11.20;11.20;;;;;26.11;28.53;99816.59;5071172;28;8920;-69
2023/09/08 11:00:11;;;;;;;;;12.00;11.60;;;;;26.39;28.20;99823.25;5088747;28;8893;-69
2023/09/08 11:02:42;;;;;;;;;12.80;11.20;;;;;26.51;27.75;99817.84;5094300;28;8958;-71
2023/09/08 11:05:14;;;;;;;;;11.00;11.00;;;;;26.70;26.78;99818.00;5108580;28;8860;-69
2023/09/08 11:07:46;;;;;;;;;12.20;12.20;;;;;26.88;26.98;99809.38;5108065;28;9636;-69
2023/09/08 11:10:15;;;;;;;;;11.00;11.00;;;;;26.89;26.61;99808.34;5108513;28;8849;-70
2023/09/08 11:12:44;;;;;;;;;13.20;12.20;;;;;26.76;27.28;99803.16;5108232;28;8930;-70
2023/09/08 11:15:13;;;;;;;;;12.60;12.00;;;;;26.93;26.95;99812.50;5108204;28;9594;-69
2023/09/08 11:17:41;;;;;;;;;9.60;9.60;;;;;27.19;26.37;99811.16;5089339;28;8837;-73
2023/09/08 11:20:12;;;;;;;;;11.80;11.80;;;;;27.33;26.22;99804.56;5068580;28;8880;-70
2023/09/08 11:22:41;;;;;;;;;13.80;12.00;;;;;27.41;26.31;99806.56;5088149;28;8920;-73
2023/09/08 11:25:12;;;;;;;;;13.20;12.00;;;;;27.40;26.59;99794.94;5088092;28;8841;-69
2023/09/08 11:27:41;;;;;;;;;11.00;11.00;;;;;27.62;26.61;99796.59;5087760;28;8885;-69
2023/09/08 11:30:11;;;;;;;;;10.20;9.60;;;;;27.44;26.40;99792.81;5068981;28;8944;-69
2023/09/08 11:32:40;;;;;;;;;9.40;9.40;;;;;27.44;26.74;99780.16;5087608;28;8882;-69
2023/09/08 11:35:11;;;;;;;;;11.40;10.00;;;;;27.53;26.14;99789.28;5088506;28;8847;-70
2023/09/08 11:37:41;;;;;;;;;13.60;10.80;;;;;27.71;25.19;99789.53;5087388;28;8824;-69
2023/09/08 11:40:13;;;;;;;;;8.00;8.00;;;;;27.93;24.53;99774.94;5079900;28;8857;-70